Time;durP1;ratioP1;P1;durP2;ratioP2;P2;SDS_P1;SDS_P2;PMS_P1;PMS_P2;Temp;Humidity;BMP_temperature;BMP_pressure;BME280_temperature;BME280_humidity;BME280_pressure;Samples;Min_cycle;Max_cycle;Signal;HPM_P1;HPM_P2
2023/02/18 00:01:11;;;;;;;38.60;24.90;;;;;;;;;;5053117;28;20907;-68
2023/02/18 00:03:38;;;;;;;35.73;24.60;;;;;;;;;;5053661;28;20460;-68
2023/02/18 00:06:11;;;;;;;38.83;24.83;;;;;;;;;;5053388;28;20430;-68
2023/02/18 00:08:38;;;;;;;39.03;27.20;;;;;;;;;;5053942;28;20423;-68
2023/02/18 00:11:06;;;;;;;39.90;26.87;;;;;;;;;;5053086;28;20449;-68
2023/02/18 00:13:33;;;;;;;45.73;26.17;;;;;;;;;;5052855;28;20433;-69
2023/02/18 00:16:01;;;;;;;40.10;25.67;;;;;;;;;;5053313;28;20521;-68
2023/02/18 00:18:30;;;;;;;44.30;27.48;;;;;;;;;;5052717;28;20433;-68
2023/02/18 00:20:57;;;;;;;43.30;26.90;;;;;;;;;;5053237;28;20183;-69
2023/02/18 00:23:24;;;;;;;36.70;25.60;;;;;;;;;;5052965;28;20790;-69
2023/02/18 00:25:59;;;;;;;45.20;28.40;;;;;;;;;;5052702;28;20910;-68
2023/02/18 00:28:26;;;;;;;43.43;28.63;;;;;;;;;;5053360;28;20772;-69
2023/02/18 00:30:53;;;;;;;45.20;29.43;;;;;;;;;;5052947;28;20437;-68
2023/02/18 00:33:21;;;;;;;44.07;26.60;;;;;;;;;;5053489;28;20831;-68
2023/02/18 00:35:49;;;;;;;45.40;27.20;;;;;;;;;;5052831;28;20460;-68
2023/02/18 00:38:16;;;;;;;45.83;31.20;;;;;;;;;;5052926;28;20433;-68
2023/02/18 00:40:44;;;;;;;44.50;29.23;;;;;;;;;;5052763;28;20473;-68
2023/02/18 00:43:11;;;;;;;43.00;28.43;;;;;;;;;;5052481;28;20927;-68
2023/02/18 00:45:38;;;;;;;39.90;29.37;;;;;;;;;;5052760;28;20442;-68
2023/02/18 00:48:05;;;;;;;53.30;29.67;;;;;;;;;;5053050;28;20439;-68
2023/02/18 00:50:32;;;;;;;42.37;29.17;;;;;;;;;;5052363;28;20442;-68
2023/02/18 00:53:01;;;;;;;54.53;32.70;;;;;;;;;;5052652;28;20551;-68
2023/02/18 00:55:28;;;;;;;46.23;29.73;;;;;;;;;;5054738;28;20937;-68
2023/02/18 00:57:55;;;;;;;45.97;28.90;;;;;;;;;;5056563;28;20433;-69
2023/02/18 01:00:24;;;;;;;41.50;28.47;;;;;;;;;;5056249;28;20479;-68
2023/02/18 01:02:52;;;;;;;48.93;30.13;;;;;;;;;;5057204;28;20456;-68
2023/02/18 01:05:20;;;;;;;47.20;28.83;;;;;;;;;;5056566;28;20497;-68
2023/02/18 01:07:47;;;;;;;38.50;26.13;;;;;;;;;;5057244;28;20851;-68
2023/02/18 01:10:16;;;;;;;49.23;28.90;;;;;;;;;;5056436;28;20550;-68
2023/02/18 01:12:43;;;;;;;47.30;27.40;;;;;;;;;;5056971;28;20533;-68
2023/02/18 01:15:12;;;;;;;42.80;28.40;;;;;;;;;;5056803;28;20481;-68
2023/02/18 01:17:39;;;;;;;46.37;27.63;;;;;;;;;;5056552;28;20425;-68
2023/02/18 01:20:07;;;;;;;48.33;26.77;;;;;;;;;;5056305;28;20477;-68
2023/02/18 01:22:34;;;;;;;37.20;27.23;;;;;;;;;;5056070;28;20445;-68
2023/02/18 01:25:01;;;;;;;32.97;22.60;;;;;;;;;;5056349;28;20532;-68
2023/02/18 01:27:30;;;;;;;44.17;28.73;;;;;;;;;;5056321;28;20444;-68
2023/02/18 01:29:57;;;;;;;39.00;26.07;;;;;;;;;;5056170;28;20432;-68
2023/02/18 01:32:24;;;;;;;37.07;24.10;;;;;;;;;;5056145;28;20439;-68
2023/02/18 01:34:51;;;;;;;40.57;27.30;;;;;;;;;;5056565;28;20441;-68
2023/02/18 01:37:19;;;;;;;37.13;24.13;;;;;;;;;;5056789;28;20433;-68
2023/02/18 01:39:46;;;;;;;47.47;27.97;;;;;;;;;;5055958;28;20470;-68
2023/02/18 01:42:18;;;;;;;44.27;28.23;;;;;;;;;;5055909;28;20434;-68
2023/02/18 01:44:48;;;;;;;46.07;27.97;;;;;;;;;;5056420;28;20438;-68
2023/02/18 01:47:15;;;;;;;41.00;26.10;;;;;;;;;;5055630;28;20439;-68
2023/02/18 01:49:43;;;;;;;42.90;25.93;;;;;;;;;;5055430;28;20899;-68
2023/02/18 01:52:13;;;;;;;43.43;26.20;;;;;;;;;;5055905;28;20511;-68
2023/02/18 01:54:42;;;;;;;38.87;25.50;;;;;;;;;;5055686;28;20439;-69
2023/02/18 01:57:11;;;;;;;39.43;25.60;;;;;;;;;;5055511;28;20441;-68
2023/02/18 01:59:39;;;;;;;45.43;24.10;;;;;;;;;;5055544;28;20973;-69
2023/02/18 02:02:09;;;;;;;41.97;25.97;;;;;;;;;;5055793;28;20435;-68
2023/02/18 02:04:37;;;;;;;44.23;26.70;;;;;;;;;;5056082;28;20467;-68
2023/02/18 02:07:04;;;;;;;44.73;26.20;;;;;;;;;;5055434;28;20432;-68
2023/02/18 02:09:32;;;;;;;49.87;25.57;;;;;;;;;;5055927;28;20443;-68
2023/02/18 02:12:09;;;;;;;42.50;27.80;;;;;;;;;;5055338;28;20527;-68
2023/02/18 02:14:44;;;;;;;38.37;25.33;;;;;;;;;;5055605;28;20427;-68
2023/02/18 02:17:17;;;;;;;41.93;26.60;;;;;;;;;;5055060;28;20420;-68
2023/02/18 02:20:07;;;;;;;47.47;23.23;;;;;;;;;;5055786;28;20461;-69
2023/02/18 02:22:48;;;;;;;38.47;25.10;;;;;;;;;;5055042;28;20423;-68
2023/02/18 02:25:20;;;;;;;41.97;26.07;;;;;;;;;;5055589;28;20433;-68
2023/02/18 02:28:17;;;;;;;50.33;25.70;;;;;;;;;;5055394;28;20425;-69
2023/02/18 02:31:08;;;;;;;39.10;22.77;;;;;;;;;;5054812;28;20426;-68
2023/02/18 02:33:47;;;;;;;57.77;28.60;;;;;;;;;;5030484;28;20456;-68
2023/02/18 02:36:17;;;;;;;49.67;26.90;;;;;;;;;;5054685;28;20414;-68
2023/02/18 02:38:49;;;;;;;44.30;27.00;;;;;;;;;;5055170;28;20446;-69
2023/02/18 02:41:22;;;;;;;37.73;23.77;;;;;;;;;;5055059;28;20462;-69
2023/02/18 02:43:52;;;;;;;40.03;24.87;;;;;;;;;;5055001;28;20429;-69
2023/02/18 02:46:22;;;;;;;41.30;24.40;;;;;;;;;;5055269;28;20438;-69
2023/02/18 02:48:52;;;;;;;43.03;25.00;;;;;;;;;;5054609;28;20435;-69
2023/02/18 02:51:24;;;;;;;47.37;26.37;;;;;;;;;;5055095;28;20418;-69
2023/02/18 02:53:51;;;;;;;52.43;26.43;;;;;;;;;;5054477;28;20418;-69
2023/02/18 02:56:20;;;;;;;40.47;23.20;;;;;;;;;;5054844;28;20430;-69
2023/02/18 02:58:52;;;;;;;38.63;23.60;;;;;;;;;;5054692;28;20433;-69
2023/02/18 03:01:29;;;;;;;38.27;22.33;;;;;;;;;;5054826;28;20487;-69
2023/02/18 03:04:06;;;;;;;34.40;21.60;;;;;;;;;;5054782;28;20440;-69
2023/02/18 03:06:44;;;;;;;34.53;23.53;;;;;;;;;;5054543;28;20906;-69
2023/02/18 03:09:17;;;;;;;31.70;21.23;;;;;;;;;;5054845;28;20429;-69
2023/02/18 03:11:48;;;;;;;38.90;22.73;;;;;;;;;;5054535;28;20449;-69
2023/02/18 03:14:17;;;;;;;39.40;20.70;;;;;;;;;;5054854;28;20426;-69
2023/02/18 03:16:47;;;;;;;35.50;20.07;;;;;;;;;;5053940;28;20437;-69
2023/02/18 03:19:19;;;;;;;35.10;21.73;;;;;;;;;;5053609;28;20450;-69
2023/02/18 03:21:50;;;;;;;41.83;22.13;;;;;;;;;;5054788;28;20473;-69
2023/02/18 03:24:19;;;;;;;37.57;22.90;;;;;;;;;;5054300;28;20426;-69
2023/02/18 03:26:48;;;;;;;33.00;21.83;;;;;;;;;;5053994;28;20437;-69
2023/02/18 03:29:17;;;;;;;32.40;19.70;;;;;;;;;;5053884;28;20434;-69
2023/02/18 03:31:46;;;;;;;35.67;22.07;;;;;;;;;;5053906;28;20448;-69
2023/02/18 03:34:17;;;;;;;36.40;22.00;;;;;;;;;;5054061;28;20472;-69
2023/02/18 03:36:44;;;;;;;36.10;22.70;;;;;;;;;;5054007;28;20891;-67
2023/02/18 03:39:15;;;;;;;35.03;20.50;;;;;;;;;;5054174;28;20443;-68
2023/02/18 03:41:44;;;;;;;36.70;21.23;;;;;;;;;;5054032;28;20470;-68
2023/02/18 03:44:12;;;;;;;35.50;21.07;;;;;;;;;;5053747;28;20454;-68
2023/02/18 03:46:42;;;;;;;31.00;19.70;;;;;;;;;;5053811;28;20439;-67
2023/02/18 03:49:10;;;;;;;38.07;22.67;;;;;;;;;;5053426;28;20899;-67
2023/02/18 03:51:37;;;;;;;36.90;22.93;;;;;;;;;;5053804;28;20436;-67
2023/02/18 03:54:04;;;;;;;34.77;18.90;;;;;;;;;;5053553;28;20431;-68
2023/02/18 03:56:33;;;;;;;32.28;20.90;;;;;;;;;;5053581;28;20441;-67
2023/02/18 03:59:00;;;;;;;32.13;20.87;;;;;;;;;;5053719;28;20231;-67
2023/02/18 04:01:28;;;;;;;33.10;20.73;;;;;;;;;;5053564;28;20473;-68
2023/02/18 04:03:55;;;;;;;31.50;19.50;;;;;;;;;;5053171;28;20446;-68
2023/02/18 04:06:22;;;;;;;31.63;20.60;;;;;;;;;;5053387;28;20430;-68
2023/02/18 04:08:50;;;;;;;31.40;18.60;;;;;;;;;;5053749;28;20535;-68
2023/02/18 04:11:17;;;;;;;37.23;18.90;;;;;;;;;;5053028;28;20452;-68
2023/02/18 04:13:46;;;;;;;31.67;19.20;;;;;;;;;;5052929;28;20438;-68
2023/02/18 04:16:13;;;;;;;27.70;18.80;;;;;;;;;;5053656;28;20745;-68
2023/02/18 04:18:40;;;;;;;26.13;16.90;;;;;;;;;;5053103;28;20425;-68
2023/02/18 04:21:07;;;;;;;28.07;15.30;;;;;;;;;;5052819;28;20471;-68
2023/02/18 04:23:35;;;;;;;23.53;15.97;;;;;;;;;;5052791;28;20434;-68
2023/02/18 04:26:02;;;;;;;26.40;16.53;;;;;;;;;;5052971;28;20433;-68
2023/02/18 04:28:29;;;;;;;22.13;13.17;;;;;;;;;;5053090;28;20434;-68
2023/02/18 04:30:58;;;;;;;21.77;14.17;;;;;;;;;;5052698;28;20442;-68
2023/02/18 04:33:25;;;;;;;24.40;16.00;;;;;;;;;;5052820;28;20438;-68
2023/02/18 04:35:52;;;;;;;21.13;13.97;;;;;;;;;;5052871;28;20433;-68
2023/02/18 04:38:19;;;;;;;22.57;12.53;;;;;;;;;;5052845;28;20439;-68
2023/02/18 04:40:46;;;;;;;22.07;13.47;;;;;;;;;;5052611;28;20481;-68
2023/02/18 04:43:13;;;;;;;22.03;13.70;;;;;;;;;;5052743;28;20453;-68
2023/02/18 04:45:41;;;;;;;21.63;15.97;;;;;;;;;;5052857;28;20437;-68
2023/02/18 04:48:09;;;;;;;24.77;13.93;;;;;;;;;;5053034;28;20429;-68
2023/02/18 04:50:36;;;;;;;21.93;13.67;;;;;;;;;;5052845;28;20452;-68
2023/02/18 04:53:04;;;;;;;19.57;13.00;;;;;;;;;;5052761;28;20449;-67
2023/02/18 04:55:31;;;;;;;21.67;12.50;;;;;;;;;;5052784;28;20437;-68
2023/02/18 04:57:58;;;;;;;22.00;14.20;;;;;;;;;;5052700;28;20437;-68
2023/02/18 05:00:27;;;;;;;20.27;12.37;;;;;;;;;;5052598;28;20480;-68
2023/02/18 05:02:54;;;;;;;26.37;13.60;;;;;;;;;;5052346;28;20437;-68
2023/02/18 05:05:23;;;;;;;23.97;15.27;;;;;;;;;;5052748;28;20970;-68
2023/02/18 05:07:50;;;;;;;19.30;13.43;;;;;;;;;;5052652;28;20441;-69
2023/02/18 05:10:18;;;;;;;27.50;14.23;;;;;;;;;;5052692;28;20441;-67
2023/02/18 05:12:45;;;;;;;24.87;14.70;;;;;;;;;;5052549;28;20530;-67
2023/02/18 05:15:12;;;;;;;22.67;13.70;;;;;;;;;;5053053;28;20442;-67
2023/02/18 05:17:40;;;;;;;22.33;14.10;;;;;;;;;;5052426;28;20942;-67
2023/02/18 05:20:08;;;;;;;21.83;14.03;;;;;;;;;;5052702;28;20974;-67
2023/02/18 05:22:36;;;;;;;23.17;13.60;;;;;;;;;;5052401;28;20477;-67
2023/02/18 05:25:03;;;;;;;20.83;14.43;;;;;;;;;;5050636;28;20963;-68
2023/02/18 05:27:31;;;;;;;18.97;11.23;;;;;;;;;;5051824;28;20431;-68
2023/02/18 05:29:58;;;;;;;18.67;12.30;;;;;;;;;;5051913;28;20781;-67
2023/02/18 05:32:25;;;;;;;19.03;12.13;;;;;;;;;;5052090;28;20438;-68
2023/02/18 05:34:52;;;;;;;17.90;11.83;;;;;;;;;;5051899;28;20598;-67
2023/02/18 05:37:19;;;;;;;20.40;13.10;;;;;;;;;;5051750;28;20440;-67
2023/02/18 05:39:48;;;;;;;20.30;13.97;;;;;;;;;;5051818;28;20440;-67
2023/02/18 05:42:15;;;;;;;20.50;13.23;;;;;;;;;;5055261;28;20480;-67
2023/02/18 05:44:42;;;;;;;18.90;12.20;;;;;;;;;;5056049;28;20437;-67
2023/02/18 05:47:11;;;;;;;23.70;13.73;;;;;;;;;;5055651;28;20451;-67
2023/02/18 05:49:39;;;;;;;20.10;14.15;;;;;;;;;;5056004;28;20213;-67
2023/02/18 05:52:06;;;;;;;24.60;16.00;;;;;;;;;;5055458;28;20198;-67
2023/02/18 05:54:33;;;;;;;22.03;14.70;;;;;;;;;;5055600;28;20431;-67
2023/02/18 05:57:02;;;;;;;21.93;15.93;;;;;;;;;;5056181;28;20762;-69
2023/02/18 05:59:30;;;;;;;25.23;15.80;;;;;;;;;;5055617;28;20438;-67
2023/02/18 06:01:57;;;;;;;21.03;14.83;;;;;;;;;;5055009;28;20479;-68
2023/02/18 06:04:24;;;;;;;20.20;15.00;;;;;;;;;;5055425;28;20473;-67
2023/02/18 06:06:51;;;;;;;21.57;15.50;;;;;;;;;;5056184;28;20437;-67
2023/02/18 06:09:18;;;;;;;21.97;15.40;;;;;;;;;;5055710;28;20434;-68
2023/02/18 06:11:46;;;;;;;18.90;14.23;;;;;;;;;;5055324;28;20442;-68
2023/02/18 06:14:14;;;;;;;20.47;14.80;;;;;;;;;;5055223;28;20438;-67
2023/02/18 06:16:41;;;;;;;16.93;11.70;;;;;;;;;;5055301;28;20441;-67
2023/02/18 06:19:08;;;;;;;18.63;12.33;;;;;;;;;;5054997;28;20444;-67
2023/02/18 06:21:36;;;;;;;14.77;10.63;;;;;;;;;;5054950;28;20795;-67
2023/02/18 06:24:03;;;;;;;12.73;8.30;;;;;;;;;;5056234;28;20435;-67
2023/02/18 06:26:30;;;;;;;11.47;9.13;;;;;;;;;;5075610;28;20437;-68
2023/02/18 06:28:57;;;;;;;8.43;6.00;;;;;;;;;;5075425;28;20446;-68
2023/02/18 06:31:26;;;;;;;8.90;6.20;;;;;;;;;;5075121;28;20429;-68
2023/02/18 06:33:53;;;;;;;5.23;4.43;;;;;;;;;;5075020;28;20474;-68
2023/02/18 06:36:20;;;;;;;4.53;4.13;;;;;;;;;;5074815;28;20441;-68
2023/02/18 06:38:47;;;;;;;7.77;5.00;;;;;;;;;;5074767;28;20939;-68
2023/02/18 06:41:15;;;;;;;4.90;4.03;;;;;;;;;;5074447;28;20995;-69
2023/02/18 06:43:42;;;;;;;7.93;3.80;;;;;;;;;;5074862;28;20432;-69
2023/02/18 06:46:09;;;;;;;8.73;3.43;;;;;;;;;;5074812;28;20460;-68
2023/02/18 06:48:38;;;;;;;3.40;3.10;;;;;;;;;;5074554;28;20451;-68
2023/02/18 06:51:06;;;;;;;3.80;3.07;;;;;;;;;;5074519;28;20205;-70
2023/02/18 06:53:33;;;;;;;3.37;2.70;;;;;;;;;;5073741;28;20439;-70
2023/02/18 06:56:00;;;;;;;6.33;3.40;;;;;;;;;;5075158;28;20439;-68
2023/02/18 06:58:27;;;;;;;4.87;3.50;;;;;;;;;;5074537;28;20516;-68
2023/02/18 07:00:55;;;;;;;3.63;3.33;;;;;;;;;;5074514;28;20437;-68
2023/02/18 07:03:22;;;;;;;3.13;2.87;;;;;;;;;;5066964;28;20446;-70
2023/02/18 07:05:50;;;;;;;4.43;3.23;;;;;;;;;;5053643;28;20453;-69
2023/02/18 07:08:18;;;;;;;3.20;2.90;;;;;;;;;;5053830;28;20438;-69
2023/02/18 07:10:45;;;;;;;4.90;3.40;;;;;;;;;;5053676;28;20441;-69
2023/02/18 07:13:13;;;;;;;3.17;2.87;;;;;;;;;;5053616;28;20438;-68
2023/02/18 07:15:40;;;;;;;4.70;3.10;;;;;;;;;;5053612;28;20438;-69
2023/02/18 07:18:08;;;;;;;2.60;2.40;;;;;;;;;;5053600;28;20949;-69
2023/02/18 07:20:35;;;;;;;3.03;2.30;;;;;;;;;;5053319;28;20445;-70
2023/02/18 07:23:04;;;;;;;3.37;2.90;;;;;;;;;;5053691;28;20493;-70
2023/02/18 07:25:31;;;;;;;8.77;3.10;;;;;;;;;;5053928;28;20430;-70
2023/02/18 07:27:58;;;;;;;3.27;2.83;;;;;;;;;;5053660;28;20436;-70
2023/02/18 07:30:25;;;;;;;5.90;3.00;;;;;;;;;;5054175;28;20917;-69
2023/02/18 07:32:52;;;;;;;3.10;2.77;;;;;;;;;;5053860;28;20445;-69
2023/02/18 07:35:21;;;;;;;2.90;2.60;;;;;;;;;;5053994;28;20454;-69
2023/02/18 07:37:49;;;;;;;4.17;3.53;;;;;;;;;;5053810;28;20868;-70
2023/02/18 07:40:19;;;;;;;3.80;2.93;;;;;;;;;;5053510;28;20441;-68
2023/02/18 07:42:46;;;;;;;9.73;2.13;;;;;;;;;;5054165;28;20560;-68
2023/02/18 07:45:13;;;;;;;2.53;2.07;;;;;;;;;;5053069;28;20666;-69
2023/02/18 07:47:41;;;;;;;3.30;2.73;;;;;;;;;;5052970;28;20429;-69
2023/02/18 07:50:09;;;;;;;3.87;2.27;;;;;;;;;;5053865;28;20829;-69
2023/02/18 07:52:36;;;;;;;3.10;2.70;;;;;;;;;;5053228;28;20445;-71
2023/02/18 07:55:03;;;;;;;3.65;2.83;;;;;;;;;;5053525;28;20430;-68
2023/02/18 07:57:32;;;;;;;2.10;1.97;;;;;;;;;;5053363;28;20193;-68
2023/02/18 07:59:59;;;;;;;3.00;2.33;;;;;;;;;;5053138;28;20453;-67
2023/02/18 08:02:26;;;;;;;2.63;2.37;;;;;;;;;;5053375;28;20480;-67
2023/02/18 08:04:53;;;;;;;1.90;1.80;;;;;;;;;;5053159;28;20465;-67
2023/02/18 08:07:22;;;;;;;2.00;1.80;;;;;;;;;;5052592;28;20444;-67
2023/02/18 08:09:49;;;;;;;2.30;2.10;;;;;;;;;;5052987;28;20464;-71
2023/02/18 08:12:17;;;;;;;2.70;2.50;;;;;;;;;;5053117;28;20433;-67
2023/02/18 08:14:45;;;;;;;2.57;2.37;;;;;;;;;;5052915;28;20480;-67
2023/02/18 08:17:12;;;;;;;2.37;2.17;;;;;;;;;;5052999;28;20495;-68
2023/02/18 08:19:39;;;;;;;3.00;2.70;;;;;;;;;;5053332;28;20433;-68
2023/02/18 08:22:07;;;;;;;2.23;2.03;;;;;;;;;;5053195;28;20481;-67
2023/02/18 08:24:34;;;;;;;2.87;2.63;;;;;;;;;;5052883;28;20437;-67
2023/02/18 08:27:01;;;;;;;4.77;2.33;;;;;;;;;;5052688;28;20439;-68
2023/02/18 08:29:28;;;;;;;2.20;2.00;;;;;;;;;;5052699;28;20443;-67
2023/02/18 08:31:58;;;;;;;3.23;2.60;;;;;;;;;;5052690;28;20442;-68
2023/02/18 08:34:25;;;;;;;2.57;2.20;;;;;;;;;;5052994;28;20450;-68
2023/02/18 08:36:52;;;;;;;4.00;2.80;;;;;;;;;;5052702;28;20559;-67
2023/02/18 08:39:19;;;;;;;2.93;2.63;;;;;;;;;;5052763;28;20791;-67
2023/02/18 08:41:47;;;;;;;2.93;2.30;;;;;;;;;;5052685;28;20480;-68
2023/02/18 08:44:14;;;;;;;2.93;2.63;;;;;;;;;;5052559;28;20453;-68
2023/02/18 08:46:41;;;;;;;2.37;2.17;;;;;;;;;;5052285;28;20444;-71
2023/02/18 08:49:09;;;;;;;2.83;2.20;;;;;;;;;;5052381;28;20434;-70
2023/02/18 08:51:37;;;;;;;3.03;2.63;;;;;;;;;;5052626;28;20203;-68
2023/02/18 08:54:04;;;;;;;2.13;1.93;;;;;;;;;;5053063;28;20434;-67
2023/02/18 08:56:32;;;;;;;2.30;2.10;;;;;;;;;;5052744;28;20437;-70
2023/02/18 08:58:59;;;;;;;4.07;2.50;;;;;;;;;;5052362;28;20524;-67
2023/02/18 09:01:26;;;;;;;3.10;2.80;;;;;;;;;;5052515;28;20429;-67
2023/02/18 09:03:53;;;;;;;3.60;2.60;;;;;;;;;;5052445;28;20441;-68
2023/02/18 09:06:22;;;;;;;3.23;2.93;;;;;;;;;;5053028;28;20498;-67
2023/02/18 09:08:49;;;;;;;3.07;2.77;;;;;;;;;;5052970;28;20441;-67
2023/02/18 09:11:17;;;;;;;2.70;2.47;;;;;;;;;;5064529;28;20439;-68
2023/02/18 09:13:44;;;;;;;4.55;3.05;;;;;;;;;;5072595;28;20436;-68
2023/02/18 09:16:13;;;;;;;2.93;2.33;;;;;;;;;;5074292;28;20193;-68
2023/02/18 09:18:40;;;;;;;2.93;2.63;;;;;;;;;;5076519;28;20511;-68
2023/02/18 09:21:08;;;;;;;2.90;2.50;;;;;;;;;;5076296;28;20463;-69
2023/02/18 09:23:37;;;;;;;3.83;2.70;;;;;;;;;;5076458;28;20472;-68
2023/02/18 09:26:05;;;;;;;2.93;2.70;;;;;;;;;;5076272;28;20475;-69
2023/02/18 09:28:32;;;;;;;4.18;3.20;;;;;;;;;;5076652;28;20428;-68
2023/02/18 09:31:04;;;;;;;2.90;2.60;;;;;;;;;;5076293;28;20186;-69
2023/02/18 09:33:31;;;;;;;3.17;2.53;;;;;;;;;;5068996;28;20784;-69
2023/02/18 09:35:58;;;;;;;4.40;3.40;;;;;;;;;;5055926;28;20437;-68
2023/02/18 09:38:25;;;;;;;3.07;2.77;;;;;;;;;;5055791;28;20786;-68
2023/02/18 09:40:55;;;;;;;3.87;3.53;;;;;;;;;;5056124;28;20513;-69
2023/02/18 09:43:25;;;;;;;2.75;2.55;;;;;;;;;;5056036;28;20503;-68
2023/02/18 09:45:53;;;;;;;3.80;3.03;;;;;;;;;;5055670;28;20627;-70
2023/02/18 09:48:26;;;;;;;3.40;2.73;;;;;;;;;;5056069;28;20947;-69
2023/02/18 09:50:53;;;;;;;3.80;3.03;;;;;;;;;;5056225;28;20760;-69
2023/02/18 09:53:21;;;;;;;4.33;3.70;;;;;;;;;;5055280;28;20949;-68
2023/02/18 09:55:49;;;;;;;5.90;3.50;;;;;;;;;;5055421;28;20429;-68
2023/02/18 09:58:20;;;;;;;6.77;4.00;;;;;;;;;;5054950;28;20460;-68
2023/02/18 10:00:49;;;;;;;5.35;3.85;;;;;;;;;;5055322;28;20429;-69
2023/02/18 10:03:18;;;;;;;6.23;3.53;;;;;;;;;;5055280;28;20245;-69
2023/02/18 10:05:51;;;;;;;5.80;3.83;;;;;;;;;;5056029;28;20491;-69
2023/02/18 10:08:20;;;;;;;5.47;4.63;;;;;;;;;;5055602;28;20437;-69
2023/02/18 10:10:47;;;;;;;4.57;4.10;;;;;;;;;;5055648;28;20441;-69
2023/02/18 10:13:16;;;;;;;5.20;4.70;;;;;;;;;;5054777;28;20454;-68
2023/02/18 10:15:45;;;;;;;5.60;4.97;;;;;;;;;;5055491;28;20529;-68
2023/02/18 10:18:20;;;;;;;8.50;5.33;;;;;;;;;;5054743;28;20437;-68
2023/02/18 10:20:48;;;;;;;4.53;4.10;;;;;;;;;;5055574;28;20436;-68
2023/02/18 10:23:16;;;;;;;9.00;6.90;;;;;;;;;;5055146;28;20485;-68
2023/02/18 10:25:44;;;;;;;7.93;5.43;;;;;;;;;;5055037;28;20442;-68
2023/02/18 10:28:12;;;;;;;8.33;6.63;;;;;;;;;;5054886;28;20430;-68
2023/02/18 10:30:42;;;;;;;6.68;5.95;;;;;;;;;;5055294;28;20459;-68
2023/02/18 10:33:18;;;;;;;9.80;7.10;;;;;;;;;;5054327;28;20271;-69
2023/02/18 10:35:49;;;;;;;10.47;5.90;;;;;;;;;;5055059;28;20417;-68
2023/02/18 10:38:21;;;;;;;11.73;7.23;;;;;;;;;;5054831;28;20432;-70
2023/02/18 10:40:54;;;;;;;12.80;6.37;;;;;;;;;;5054991;28;20427;-68
2023/02/18 10:43:25;;;;;;;7.73;5.90;;;;;;;;;;5054195;28;20989;-67
2023/02/18 10:45:56;;;;;;;11.73;6.55;;;;;;;;;;5055639;28;20774;-68
2023/02/18 10:48:32;;;;;;;9.87;6.80;;;;;;;;;;5054788;28;20621;-67
2023/02/18 10:51:00;;;;;;;9.17;6.70;;;;;;;;;;5054583;28;20427;-68
2023/02/18 10:53:32;;;;;;;10.30;7.65;;;;;;;;;;5054670;28;20772;-68
2023/02/18 10:55:59;;;;;;;9.15;6.22;;;;;;;;;;5054560;28;20217;-69
2023/02/18 10:58:34;;;;;;;7.00;4.57;;;;;;;;;;5054468;28;20186;-69
2023/02/18 11:01:03;;;;;;;9.15;6.75;;;;;;;;;;5054587;28;20430;-70
2023/02/18 11:03:41;;;;;;;8.97;7.40;;;;;;;;;;5054073;28;20218;-67
2023/02/18 11:06:16;;;;;;;11.03;6.53;;;;;;;;;;5054358;28;20421;-68
2023/02/18 11:08:45;;;;;;;10.17;6.93;;;;;;;;;;5054350;28;20417;-79
2023/02/18 11:11:16;;;;;;;7.20;4.90;;;;;;;;;;5054457;28;20442;-70
2023/02/18 11:13:44;;;;;;;10.43;6.63;;;;;;;;;;5054426;28;20424;-70
2023/02/18 11:16:13;;;;;;;9.37;6.30;;;;;;;;;;5054227;28;20434;-76
2023/02/18 11:18:42;;;;;;;7.40;5.80;;;;;;;;;;5053873;28;20880;-72
2023/02/18 11:21:20;;;;;;;8.98;5.72;;;;;;;;;;5036100;28;20461;-72
2023/02/18 11:23:48;;;;;;;11.17;6.50;;;;;;;;;;5033121;28;20212;-71
2023/02/18 11:26:16;;;;;;;6.47;4.80;;;;;;;;;;5044557;28;20822;-70
2023/02/18 11:28:44;;;;;;;8.10;5.82;;;;;;;;;;5053797;28;20440;-70
2023/02/18 11:31:17;;;;;;;10.93;5.77;;;;;;;;;;5053868;28;20282;-71
2023/02/18 11:33:49;;;;;;;7.07;4.65;;;;;;;;;;5054109;28;20442;-71
2023/02/18 11:36:22;;;;;;;6.90;5.60;;;;;;;;;;5053764;28;20628;-71
2023/02/18 11:38:51;;;;;;;7.50;5.30;;;;;;;;;;5052976;28;20414;-72
2023/02/18 11:41:20;;;;;;;6.87;4.63;;;;;;;;;;5053039;28;20429;-70
2023/02/18 11:43:49;;;;;;;11.30;6.95;;;;;;;;;;5053714;28;20477;-71
2023/02/18 11:46:17;;;;;;;6.73;5.43;;;;;;;;;;5053599;28;20694;-71
2023/02/18 11:48:46;;;;;;;9.90;7.00;;;;;;;;;;5053337;28;20440;-72
2023/02/18 11:51:17;;;;;;;8.27;6.17;;;;;;;;;;5053335;28;20444;-70
2023/02/18 11:53:59;;;;;;;9.18;6.38;;;;;;;;;;5053890;28;20437;-71
2023/02/18 11:56:27;;;;;;;9.17;7.67;;;;;;;;;;5050291;28;20274;-70
2023/02/18 11:58:54;;;;;;;7.40;6.60;;;;;;;;;;5052935;28;20452;-70
2023/02/18 12:01:28;;;;;;;9.80;6.20;;;;;;;;;;5053197;28;20433;-71
2023/02/18 12:03:59;;;;;;;10.57;7.93;;;;;;;;;;5053120;28;20489;-71
2023/02/18 12:06:28;;;;;;;6.67;5.70;;;;;;;;;;5053786;28;20513;-71
2023/02/18 12:08:58;;;;;;;10.73;6.43;;;;;;;;;;5052936;28;20451;-70
2023/02/18 12:11:28;;;;;;;11.88;6.60;;;;;;;;;;5053545;28;20445;-71
2023/02/18 12:13:56;;;;;;;10.48;8.07;;;;;;;;;;5053236;28;20199;-72
2023/02/18 12:16:29;;;;;;;12.95;7.97;;;;;;;;;;5053245;28;20285;-72
2023/02/18 12:19:06;;;;;;;9.17;6.40;;;;;;;;;;5052971;28;20182;-71
2023/02/18 12:21:37;;;;;;;9.43;7.37;;;;;;;;;;5053050;28;20518;-71
2023/02/18 12:24:11;;;;;;;14.70;7.30;;;;;;;;;;5053100;28;20800;-72
2023/02/18 12:26:45;;;;;;;8.50;7.60;;;;;;;;;;5052992;28;20439;-71
2023/02/18 12:29:19;;;;;;;9.65;7.53;;;;;;;;;;5052595;28;20436;-71
2023/02/18 12:31:52;;;;;;;7.20;6.47;;;;;;;;;;5053466;28;20189;-70
2023/02/18 12:34:35;;;;;;;8.93;5.77;;;;;;;;;;5053048;28;20201;-71
2023/02/18 12:37:07;;;;;;;8.90;6.47;;;;;;;;;;5053281;28;20428;-70
2023/02/18 12:39:45;;;;;;;9.53;6.90;;;;;;;;;;5052648;28;20441;-71
2023/02/18 12:42:19;;;;;;;10.73;7.23;;;;;;;;;;5052577;28;20430;-70
2023/02/18 12:44:58;;;;;;;7.83;6.30;;;;;;;;;;5052654;28;20488;-70
2023/02/18 12:47:31;;;;;;;10.70;7.17;;;;;;;;;;5052760;28;20433;-70
2023/02/18 12:50:14;;;;;;;8.40;7.40;;;;;;;;;;5051701;28;20429;-70
2023/02/18 12:52:46;;;;;;;12.97;6.90;;;;;;;;;;4999590;28;20435;-70
2023/02/18 12:55:31;;;;;;;13.87;6.70;;;;;;;;;;5052258;28;20941;-70
2023/02/18 12:58:05;;;;;;;8.83;7.83;;;;;;;;;;5052643;28;20429;-69
2023/02/18 13:00:55;;;;;;;15.40;8.90;;;;;;;;;;5052898;28;20428;-70
2023/02/18 13:03:37;;;;;;;11.73;7.33;;;;;;;;;;5052873;28;20488;-70
2023/02/18 13:06:09;;;;;;;9.27;7.47;;;;;;;;;;5052757;28;20483;-69
2023/02/18 13:08:43;;;;;;;16.30;7.20;;;;;;;;;;5052867;28;20179;-73
2023/02/18 13:11:17;;;;;;;12.77;8.03;;;;;;;;;;5053347;28;20477;-71
2023/02/18 13:13:49;;;;;;;11.33;7.57;;;;;;;;;;5052708;28;20429;-69
2023/02/18 13:16:18;;;;;;;7.37;6.23;;;;;;;;;;5053014;28;20429;-70
2023/02/18 13:18:47;;;;;;;15.33;8.67;;;;;;;;;;5052596;28;20446;-70
2023/02/18 13:21:16;;;;;;;11.70;7.50;;;;;;;;;;5052505;28;20433;-70
2023/02/18 13:23:49;;;;;;;10.90;8.37;;;;;;;;;;5052636;28;20477;-70
2023/02/18 13:26:17;;;;;;;11.83;8.27;;;;;;;;;;5053143;28;20435;-70
2023/02/18 13:28:47;;;;;;;9.10;5.90;;;;;;;;;;5052558;28;20434;-68
2023/02/18 13:31:19;;;;;;;14.03;9.87;;;;;;;;;;5052462;28;20444;-69
2023/02/18 13:33:50;;;;;;;13.17;10.20;;;;;;;;;;5052477;28;20452;-70
2023/02/18 13:36:23;;;;;;;11.37;7.90;;;;;;;;;;5052184;28;20879;-69
2023/02/18 13:38:57;;;;;;;12.10;8.07;;;;;;;;;;5052662;28;20432;-69
2023/02/18 13:41:26;;;;;;;10.53;8.30;;;;;;;;;;5052547;28;20528;-69
2023/02/18 13:43:53;;;;;;;12.50;7.13;;;;;;;;;;5052166;28;20486;-71
2023/02/18 13:46:21;;;;;;;17.03;6.97;;;;;;;;;;5052465;28;20461;-70
2023/02/18 13:48:50;;;;;;;9.83;7.33;;;;;;;;;;5052048;28;20446;-71
2023/02/18 13:51:19;;;;;;;12.23;5.70;;;;;;;;;;5051950;28;20434;-71
2023/02/18 13:53:51;;;;;;;9.57;6.43;;;;;;;;;;5052595;28;20446;-71
2023/02/18 13:56:27;;;;;;;9.00;6.80;;;;;;;;;;5052088;28;20428;-71
2023/02/18 13:58:56;;;;;;;6.67;5.97;;;;;;;;;;5052110;28;20472;-70
2023/02/18 14:01:25;;;;;;;9.53;4.50;;;;;;;;;;5052470;28;20440;-69
2023/02/18 14:03:54;;;;;;;6.60;5.27;;;;;;;;;;5055449;28;20465;-71
2023/02/18 14:06:23;;;;;;;8.40;5.00;;;;;;;;;;5056250;28;20440;-71
2023/02/18 14:08:51;;;;;;;5.30;4.90;;;;;;;;;;5056094;28;20440;-71
2023/02/18 14:11:33;;;;;;;8.60;5.50;;;;;;;;;;5055665;28;20445;-71
2023/02/18 14:14:15;;;;;;;5.93;4.53;;;;;;;;;;5055914;28;20428;-70
2023/02/18 14:17:08;;;;;;;7.83;5.20;;;;;;;;;;5055702;28;20431;-71
2023/02/18 14:19:36;;;;;;;7.17;4.67;;;;;;;;;;4997807;28;20435;-72
2023/02/18 14:22:18;;;;;;;7.53;6.10;;;;;;;;;;5055719;28;20514;-71
2023/02/18 14:24:48;;;;;;;7.80;4.50;;;;;;;;;;5054581;28;20479;-71
2023/02/18 14:27:17;;;;;;;9.80;5.87;;;;;;;;;;5055519;28;20418;-71
2023/02/18 14:29:44;;;;;;;13.80;5.70;;;;;;;;;;5055507;28;20437;-71
2023/02/18 14:32:14;;;;;;;9.70;7.40;;;;;;;;;;5055849;28;20439;-71
2023/02/18 14:34:54;;;;;;;8.33;5.20;;;;;;;;;;5055526;28;20601;-70
2023/02/18 14:37:29;;;;;;;13.37;6.27;;;;;;;;;;5055000;28;20426;-70
2023/02/18 14:40:01;;;;;;;8.77;7.40;;;;;;;;;;5055339;28;20773;-71
2023/02/18 14:42:36;;;;;;;12.93;7.20;;;;;;;;;;5055833;28;20422;-71
2023/02/18 14:45:21;;;;;;;10.60;6.90;;;;;;;;;;5055660;28;20207;-70